createdAt,value
2023-02-16T00:00:31.428Z,0
2023-02-16T00:01:31.463Z,0
2023-02-16T00:02:31.711Z,0
2023-02-16T00:03:31.405Z,0
2023-02-16T00:04:31.306Z,0
2023-02-16T00:05:31.225Z,0
2023-02-16T00:06:31.216Z,0
2023-02-16T00:07:31.132Z,0
2023-02-16T00:08:30.686Z,0
2023-02-16T00:09:31.098Z,0
2023-02-16T00:10:31.072Z,0
2023-02-16T00:11:31.001Z,0
2023-02-16T00:12:30.978Z,0
2023-02-16T00:13:30.952Z,0
2023-02-16T00:14:31.021Z,0
2023-02-16T00:15:30.918Z,0
2023-02-16T00:16:31.114Z,0
2023-02-16T00:17:30.810Z,0
2023-02-16T00:18:30.806Z,0
2023-02-16T00:19:30.788Z,0
2023-02-16T00:20:30.710Z,0
2023-02-16T00:21:30.714Z,0
2023-02-16T00:22:30.655Z,0
2023-02-16T00:23:30.618Z,0
2023-02-16T00:24:30.356Z,0
2023-02-16T00:25:30.337Z,0
2023-02-16T00:26:30.615Z,0
2023-02-16T00:27:30.481Z,0
2023-02-16T00:28:30.460Z,0
2023-02-16T00:29:30.590Z,0
2023-02-16T00:30:30.817Z,0
2023-02-16T00:31:30.976Z,0
2023-02-16T00:32:30.734Z,0
2023-02-16T00:33:30.309Z,0
2023-02-16T00:34:30.343Z,0
2023-02-16T00:35:30.237Z,0
2023-02-16T00:36:30.217Z,0
2023-02-16T00:37:30.164Z,0
2023-02-16T00:38:30.142Z,0
2023-02-16T00:39:30.126Z,0
2023-02-16T00:40:30.069Z,0
2023-02-16T00:41:30.039Z,0
2023-02-16T00:42:30.000Z,0
2023-02-16T00:43:30.131Z,0
2023-02-16T00:44:29.940Z,0
2023-02-16T00:45:29.905Z,0
2023-02-16T00:46:30.194Z,0
2023-02-16T00:47:29.882Z,0
2023-02-16T00:48:29.847Z,0
2023-02-16T00:49:29.796Z,0
2023-02-16T00:50:29.922Z,0
2023-02-16T00:51:35.919Z,0
2023-02-16T00:52:29.421Z,0
2023-02-16T00:53:29.395Z,0
2023-02-16T00:54:31.643Z,0
2023-02-16T00:55:29.597Z,0
2023-02-16T00:56:29.547Z,0
2023-02-16T00:57:29.517Z,0
2023-02-16T00:58:29.514Z,0
2023-02-16T00:59:29.477Z,0
2023-02-16T01:00:29.438Z,0
2023-02-16T01:01:29.744Z,0
2023-02-16T01:02:29.411Z,0
2023-02-16T01:03:29.315Z,0
2023-02-16T01:04:29.580Z,0
2023-02-16T01:05:29.270Z,0
2023-02-16T01:06:29.243Z,0
2023-02-16T01:07:29.183Z,0
2023-02-16T01:08:29.150Z,0
2023-02-16T01:09:28.868Z,0
2023-02-16T01:10:29.094Z,0
2023-02-16T01:11:29.227Z,0
2023-02-16T01:12:29.035Z,0
2023-02-16T01:13:28.986Z,0
2023-02-16T01:14:28.941Z,0
2023-02-16T01:15:28.740Z,0
2023-02-16T01:16:28.991Z,0
2023-02-16T01:17:28.630Z,0
2023-02-16T01:18:28.854Z,0
2023-02-16T01:19:28.776Z,0
2023-02-16T01:20:28.817Z,0
2023-02-16T01:21:28.724Z,0
2023-02-16T01:22:28.756Z,0
2023-02-16T01:23:28.656Z,0
2023-02-16T01:24:28.598Z,0
2023-02-16T01:25:28.792Z,0
2023-02-16T01:26:28.558Z,0
2023-02-16T01:27:28.528Z,0
2023-02-16T01:28:28.504Z,0
2023-02-16T01:29:28.501Z,0
2023-02-16T01:30:28.832Z,0
2023-02-16T01:31:28.912Z,0
2023-02-16T01:32:29.195Z,0
2023-02-16T01:33:28.396Z,0
2023-02-16T01:34:28.370Z,0
2023-02-16T01:35:28.275Z,0
2023-02-16T01:36:28.259Z,0
2023-02-16T01:37:28.218Z,0
2023-02-16T01:38:28.346Z,0
2023-02-16T01:39:28.154Z,0
2023-02-16T01:40:28.104Z,0
2023-02-16T01:41:27.835Z,0
2023-02-16T01:42:28.030Z,0
2023-02-16T01:43:28.043Z,0
2023-02-16T01:44:27.991Z,0
2023-02-16T01:45:27.920Z,0
2023-02-16T01:46:28.411Z,0
2023-02-16T01:47:27.881Z,0
2023-02-16T01:48:27.832Z,0
2023-02-16T01:49:27.553Z,0
2023-02-16T01:50:27.873Z,0
2023-02-16T01:51:27.734Z,0
2023-02-16T01:52:27.858Z,0
2023-02-16T01:53:27.877Z,0
2023-02-16T01:54:27.661Z,0
2023-02-16T01:55:27.602Z,0
2023-02-16T01:56:27.579Z,0
2023-02-16T01:57:27.550Z,0
2023-02-16T01:58:27.519Z,0
2023-02-16T01:59:27.767Z,0
2023-02-16T02:00:27.464Z,0
2023-02-16T02:01:27.732Z,0
2023-02-16T02:02:27.595Z,0
2023-02-16T02:03:27.326Z,0
2023-02-16T02:04:27.453Z,0
2023-02-16T02:05:27.266Z,0
2023-02-16T02:06:27.298Z,0
2023-02-16T02:07:27.234Z,0
2023-02-16T02:08:27.201Z,0
2023-02-16T02:09:27.160Z,0
2023-02-16T02:10:26.895Z,0
2023-02-16T02:11:27.079Z,0
2023-02-16T02:12:27.045Z,0
2023-02-16T02:13:27.071Z,0
2023-02-16T02:14:26.978Z,0
2023-02-16T02:15:26.961Z,0
2023-02-16T02:16:27.340Z,0
2023-02-16T02:17:26.888Z,0
2023-02-16T02:18:26.844Z,0
2023-02-16T02:19:26.835Z,0
2023-02-16T02:20:26.985Z,0
2023-02-16T02:21:26.721Z,0
2023-02-16T02:22:26.930Z,0
2023-02-16T02:23:26.682Z,0
2023-02-16T02:24:26.673Z,0
2023-02-16T02:25:26.633Z,0
2023-02-16T02:26:26.372Z,0
2023-02-16T02:27:26.292Z,0
2023-02-16T02:28:26.540Z,0
2023-02-16T02:29:26.479Z,0
2023-02-16T02:30:26.953Z,0
2023-02-16T02:31:26.936Z,0
2023-02-16T02:32:26.766Z,0
2023-02-16T02:33:26.340Z,0
2023-02-16T02:34:26.114Z,0
2023-02-16T02:35:26.361Z,0
2023-02-16T02:36:26.396Z,0
2023-02-16T02:37:26.211Z,0
2023-02-16T02:38:26.286Z,0
2023-02-16T02:39:26.217Z,0
2023-02-16T02:40:26.176Z,0
2023-02-16T02:41:26.083Z,0
2023-02-16T02:42:26.070Z,0
2023-02-16T02:43:26.032Z,0
2023-02-16T02:44:25.983Z,0
2023-02-16T02:45:25.950Z,0
2023-02-16T02:46:26.298Z,0
2023-02-16T02:47:25.891Z,0
2023-02-16T02:48:25.915Z,0
2023-02-16T02:49:25.837Z,0
2023-02-16T02:50:25.759Z,0
2023-02-16T02:51:25.749Z,0
2023-02-16T02:52:25.756Z,0
2023-02-16T02:53:25.683Z,0
2023-02-16T02:54:25.879Z,0
2023-02-16T02:55:25.649Z,0
2023-02-16T02:56:25.597Z,0
2023-02-16T02:57:25.552Z,0
2023-02-16T02:58:25.532Z,0
2023-02-16T02:59:25.498Z,0
2023-02-16T03:00:25.463Z,0
2023-02-16T03:01:25.727Z,0
2023-02-16T03:02:25.632Z,0
2023-02-16T03:03:25.358Z,0
2023-02-16T03:04:25.338Z,0
2023-02-16T03:05:25.314Z,0
2023-02-16T03:06:25.389Z,0
2023-02-16T03:07:25.202Z,0
2023-02-16T03:08:25.202Z,0
2023-02-16T03:09:25.170Z,0
2023-02-16T03:10:25.199Z,0
2023-02-16T03:11:24.898Z,0
2023-02-16T03:12:25.062Z,0
2023-02-16T03:13:25.013Z,0
2023-02-16T03:14:25.017Z,0
2023-02-16T03:15:24.954Z,0
2023-02-16T03:16:25.187Z,0
2023-02-16T03:17:24.895Z,0
2023-02-16T03:18:24.844Z,0
2023-02-16T03:19:24.816Z,0
2023-02-16T03:20:24.789Z,0
2023-02-16T03:21:24.752Z,0
2023-02-16T03:22:24.747Z,0
2023-02-16T03:23:24.690Z,0
2023-02-16T03:24:24.636Z,0
2023-02-16T03:25:24.604Z,0
2023-02-16T03:26:24.667Z,0
2023-02-16T03:27:24.560Z,0
2023-02-16T03:28:24.564Z,0
2023-02-16T03:29:24.472Z,0
2023-02-16T03:30:25.113Z,0
2023-02-16T03:31:25.389Z,0
2023-02-16T03:32:24.508Z,0
2023-02-16T03:33:24.353Z,0
2023-02-16T03:34:24.303Z,0
2023-02-16T03:35:24.056Z,0
2023-02-16T03:36:24.250Z,0
2023-02-16T03:37:25.407Z,0
2023-02-16T03:38:24.166Z,0
2023-02-16T03:39:24.136Z,0
2023-02-16T03:40:24.125Z,0
2023-02-16T03:41:24.123Z,0
2023-02-16T03:42:24.132Z,0
2023-02-16T03:43:24.011Z,0
2023-02-16T03:44:24.129Z,0
2023-02-16T03:45:24.068Z,0
2023-02-16T03:46:24.192Z,0
2023-02-16T03:47:23.948Z,0
2023-02-16T03:48:23.860Z,0
2023-02-16T03:49:23.834Z,0
2023-02-16T03:50:23.788Z,0
2023-02-16T03:51:23.748Z,0
2023-02-16T03:52:23.750Z,0
2023-02-16T03:53:25.424Z,0
2023-02-16T03:54:23.662Z,0
2023-02-16T03:55:23.673Z,0
2023-02-16T03:56:23.321Z,0
2023-02-16T03:57:23.555Z,0
2023-02-16T03:58:23.737Z,0
2023-02-16T03:59:23.485Z,0
2023-02-16T04:00:23.485Z,0
2023-02-16T04:01:23.411Z,0
2023-02-16T04:02:23.804Z,0
2023-02-16T04:03:23.350Z,0
2023-02-16T04:04:23.828Z,0
2023-02-16T04:05:23.274Z,0
2023-02-16T04:06:23.284Z,0
2023-02-16T04:07:23.223Z,0
2023-02-16T04:08:23.192Z,0
2023-02-16T04:09:23.144Z,0
2023-02-16T04:10:23.122Z,0
2023-02-16T04:11:23.249Z,0
2023-02-16T04:12:23.072Z,0
2023-02-16T04:13:23.048Z,0
2023-02-16T04:14:23.058Z,0
2023-02-16T04:15:22.975Z,0
2023-02-16T04:16:23.280Z,0
2023-02-16T04:17:22.873Z,0
2023-02-16T04:18:22.948Z,0
2023-02-16T04:19:22.570Z,0
2023-02-16T04:20:22.806Z,0
2023-02-16T04:21:22.785Z,0
2023-02-16T04:22:22.738Z,0
2023-02-16T04:23:22.710Z,0
2023-02-16T04:24:22.668Z,0
2023-02-16T04:25:22.649Z,0
2023-02-16T04:26:22.610Z,0
2023-02-16T04:27:22.535Z,0
2023-02-16T04:28:22.518Z,0
2023-02-16T04:29:22.274Z,0
2023-02-16T04:30:23.003Z,0
2023-02-16T04:31:23.105Z,0
2023-02-16T04:32:22.560Z,0
2023-02-16T04:33:22.340Z,0
2023-02-16T04:34:22.336Z,0
2023-02-16T04:35:22.295Z,0
2023-02-16T04:36:22.230Z,0
2023-02-16T04:37:22.232Z,0
2023-02-16T04:38:22.206Z,0
2023-02-16T04:39:22.186Z,0
2023-02-16T04:40:21.882Z,0
2023-02-16T04:41:22.088Z,0
2023-02-16T04:42:22.039Z,0
2023-02-16T04:43:22.023Z,0
2023-02-16T04:44:22.021Z,0
2023-02-16T04:45:21.957Z,0
2023-02-16T04:46:22.379Z,0
2023-02-16T04:47:21.869Z,0
2023-02-16T04:48:21.874Z,0
2023-02-16T04:49:21.564Z,0
2023-02-16T04:50:21.814Z,0
2023-02-16T04:51:21.750Z,0
2023-02-16T04:52:21.749Z,0
2023-02-16T04:53:21.657Z,0
2023-02-16T04:54:21.684Z,0
2023-02-16T04:55:21.612Z,0
2023-02-16T04:56:21.620Z,0
2023-02-16T04:57:21.306Z,0
2023-02-16T04:58:21.500Z,0
2023-02-16T04:59:21.494Z,0
2023-02-16T05:00:21.695Z,0
2023-02-16T05:01:21.621Z,0
2023-02-16T05:02:21.476Z,0
2023-02-16T05:03:21.346Z,0
2023-02-16T05:04:21.424Z,0
2023-02-16T05:05:21.304Z,0
2023-02-16T05:06:21.024Z,0
2023-02-16T05:07:21.195Z,0
2023-02-16T05:08:23.588Z,0
2023-02-16T05:09:21.137Z,0
2023-02-16T05:10:21.117Z,0
2023-02-16T05:11:21.069Z,0
2023-02-16T05:12:21.037Z,0
2023-02-16T05:13:21.035Z,0
2023-02-16T05:14:20.982Z,0
2023-02-16T05:15:21.031Z,0
2023-02-16T05:16:21.323Z,0
2023-02-16T05:17:20.964Z,0
2023-02-16T05:18:21.065Z,0
2023-02-16T05:19:21.034Z,0
2023-02-16T05:20:20.957Z,0
2023-02-16T05:21:20.750Z,0
2023-02-16T05:22:20.768Z,0
2023-02-16T05:23:20.693Z,0
2023-02-16T05:24:20.699Z,0
2023-02-16T05:25:20.620Z,0
2023-02-16T05:26:20.603Z,0
2023-02-16T05:27:20.541Z,0
2023-02-16T05:28:20.896Z,0
2023-02-16T05:29:20.466Z,0
2023-02-16T05:30:20.879Z,0
2023-02-16T05:31:21.156Z,0
2023-02-16T05:32:20.867Z,0
2023-02-16T05:33:20.350Z,0
2023-02-16T05:34:20.405Z,0
2023-02-16T05:35:20.271Z,0
2023-02-16T05:36:20.306Z,0
2023-02-16T05:37:20.212Z,0
2023-02-16T05:38:20.242Z,0
2023-02-16T05:39:20.161Z,0
2023-02-16T05:40:20.099Z,0
2023-02-16T05:41:20.076Z,0
2023-02-16T05:42:20.088Z,0
2023-02-16T05:43:20.011Z,0
2023-02-16T05:44:19.747Z,0
2023-02-16T05:45:19.963Z,0
2023-02-16T05:46:20.213Z,0
2023-02-16T05:47:19.924Z,0
2023-02-16T05:48:19.862Z,0
2023-02-16T05:49:19.818Z,0
2023-02-16T05:50:19.853Z,0
2023-02-16T05:51:19.734Z,0
2023-02-16T05:52:19.744Z,0
2023-02-16T05:53:19.679Z,0
2023-02-16T05:54:19.856Z,0
2023-02-16T05:55:19.628Z,0
2023-02-16T05:56:19.585Z,0
2023-02-16T05:57:19.553Z,0
2023-02-16T05:58:19.504Z,0
2023-02-16T05:59:19.265Z,0
2023-02-16T06:00:19.508Z,0
2023-02-16T06:01:19.510Z,0
2023-02-16T06:02:20.076Z,0
2023-02-16T06:03:19.350Z,0
2023-02-16T06:04:19.354Z,0
2023-02-16T06:05:19.275Z,0
2023-02-16T06:06:19.340Z,0
2023-02-16T06:07:21.877Z,0
2023-02-16T06:08:19.194Z,0
2023-02-16T06:09:19.156Z,0
2023-02-16T06:10:19.436Z,0
2023-02-16T06:11:18.832Z,0
2023-02-16T06:12:19.049Z,0
2023-02-16T06:13:19.021Z,0
2023-02-16T06:14:19.374Z,0
2023-02-16T06:15:18.949Z,0
2023-02-16T06:16:19.172Z,0
2023-02-16T06:17:18.935Z,0
2023-02-16T06:18:18.834Z,0
2023-02-16T06:19:18.853Z,0
2023-02-16T06:20:18.780Z,0
2023-02-16T06:21:18.797Z,0
2023-02-16T06:22:18.723Z,0
2023-02-16T06:23:18.727Z,0
2023-02-16T06:24:18.748Z,0
2023-02-16T06:25:18.391Z,0
2023-02-16T06:26:18.373Z,0
2023-02-16T06:27:18.545Z,0
2023-02-16T06:28:18.621Z,0
2023-02-16T06:29:18.545Z,0
2023-02-16T06:30:18.883Z,0
2023-02-16T06:31:18.724Z,0
2023-02-16T06:32:19.050Z,0
2023-02-16T06:33:18.807Z,0
2023-02-16T06:34:18.312Z,0
2023-02-16T06:35:18.275Z,5
2023-02-16T06:36:18.651Z,5
2023-02-16T06:37:18.308Z,5
2023-02-16T06:38:18.631Z,5
2023-02-16T06:39:18.775Z,5
2023-02-16T06:40:17.718Z,5
2023-02-16T06:41:18.096Z,10
2023-02-16T06:42:18.084Z,10
2023-02-16T06:43:18.019Z,10
2023-02-16T06:44:18.015Z,10
2023-02-16T06:45:17.966Z,10
2023-02-16T06:46:18.077Z,15
2023-02-16T06:47:17.910Z,15
2023-02-16T06:48:18.123Z,15
2023-02-16T06:49:17.830Z,20
2023-02-16T06:50:17.545Z,20
2023-02-16T06:51:17.749Z,25
2023-02-16T06:52:17.715Z,25
2023-02-16T06:53:17.860Z,25
2023-02-16T06:54:17.745Z,30
2023-02-16T06:55:17.620Z,30
2023-02-16T06:56:17.616Z,30
2023-02-16T06:57:17.571Z,35
2023-02-16T06:58:17.383Z,35
2023-02-16T06:59:17.547Z,40
2023-02-16T07:00:17.528Z,40
2023-02-16T07:01:17.804Z,40
2023-02-16T07:02:17.413Z,40
2023-02-16T07:03:29.988Z,45
2023-02-16T07:04:17.352Z,45
2023-02-16T07:05:17.353Z,45
2023-02-16T07:06:17.249Z,45
2023-02-16T07:07:17.271Z,50
2023-02-16T07:08:17.281Z,45
2023-02-16T07:09:19.488Z,50
2023-02-16T07:10:17.254Z,50
2023-02-16T07:11:17.434Z,55
2023-02-16T07:12:17.116Z,55
2023-02-16T07:13:17.010Z,55
2023-02-16T07:14:19.675Z,60
2023-02-16T07:15:16.965Z,60
2023-02-16T07:16:17.352Z,60
2023-02-16T07:17:16.937Z,60
2023-02-16T07:18:16.638Z,60
2023-02-16T07:19:16.861Z,60
2023-02-16T07:20:16.856Z,60
2023-02-16T07:21:16.836Z,60
2023-02-16T07:22:16.749Z,60
2023-02-16T07:23:16.731Z,60
2023-02-16T07:24:16.736Z,65
2023-02-16T07:25:16.687Z,65
2023-02-16T07:26:16.917Z,70
2023-02-16T07:27:17.949Z,70
2023-02-16T07:28:16.854Z,70
2023-02-16T07:29:16.527Z,75
2023-02-16T07:30:16.935Z,75
2023-02-16T07:31:17.871Z,75
2023-02-16T07:32:17.117Z,70
2023-02-16T07:33:16.399Z,70
2023-02-16T07:34:16.668Z,70
2023-02-16T07:35:16.374Z,75
2023-02-16T07:36:16.335Z,75
2023-02-16T07:37:16.288Z,80
2023-02-16T07:38:15.998Z,80
2023-02-16T07:39:16.348Z,80
2023-02-16T07:40:16.164Z,85
2023-02-16T07:41:20.106Z,85
2023-02-16T07:42:16.108Z,85
2023-02-16T07:43:16.082Z,90
2023-02-16T07:44:16.069Z,90
2023-02-16T07:45:16.017Z,90
2023-02-16T07:46:16.350Z,90
2023-02-16T07:47:15.727Z,90
2023-02-16T07:48:15.907Z,90
2023-02-16T07:49:15.644Z,90
2023-02-16T07:50:15.610Z,85
2023-02-16T07:51:16.446Z,85
2023-02-16T07:52:15.793Z,90
2023-02-16T07:53:17.624Z,95
2023-02-16T07:54:15.726Z,95
2023-02-16T07:55:18.691Z,100
2023-02-16T07:56:15.659Z,105
2023-02-16T07:57:15.764Z,105
2023-02-16T07:58:15.597Z,110
2023-02-16T07:59:15.318Z,110
2023-02-16T08:00:15.567Z,115
2023-02-16T08:01:18.280Z,115
2023-02-16T08:02:16.009Z,115
2023-02-16T08:03:16.113Z,110
2023-02-16T08:04:15.426Z,110
2023-02-16T08:05:15.406Z,105
2023-02-16T08:06:15.348Z,100
2023-02-16T08:07:15.298Z,95
2023-02-16T08:08:15.285Z,90
2023-02-16T08:09:15.378Z,90
2023-02-16T08:10:15.218Z,90
2023-02-16T08:11:15.625Z,95
2023-02-16T08:12:15.163Z,100
2023-02-16T08:13:15.212Z,105
2023-02-16T08:14:15.104Z,115
2023-02-16T08:15:14.811Z,125
2023-02-16T08:16:15.433Z,130
2023-02-16T08:17:15.271Z,130
2023-02-16T08:18:15.554Z,140
2023-02-16T08:19:15.196Z,145
2023-02-16T08:20:14.910Z,155
2023-02-16T08:21:15.042Z,160
2023-02-16T08:22:14.911Z,170
2023-02-16T08:23:14.876Z,175
2023-02-16T08:24:14.793Z,180
2023-02-16T08:25:16.510Z,180
2023-02-16T08:26:15.321Z,185
2023-02-16T08:27:14.454Z,185
2023-02-16T08:28:14.706Z,195
2023-02-16T08:29:14.966Z,190
2023-02-16T08:30:15.218Z,195
2023-02-16T08:31:14.857Z,200
2023-02-16T08:32:15.116Z,210
2023-02-16T08:33:14.510Z,215
2023-02-16T08:34:14.082Z,220
2023-02-16T08:35:14.467Z,230
2023-02-16T08:36:14.601Z,230
2023-02-16T08:37:14.143Z,230
2023-02-16T08:38:13.910Z,230
2023-02-16T08:39:14.334Z,225
2023-02-16T08:40:14.275Z,220
2023-02-16T08:41:14.013Z,220
2023-02-16T08:42:14.276Z,215
2023-02-16T08:43:14.226Z,215
2023-02-16T08:44:14.311Z,215
2023-02-16T08:45:14.196Z,220
2023-02-16T08:46:15.418Z,225
2023-02-16T08:47:14.089Z,235
2023-02-16T08:48:14.079Z,250
2023-02-16T08:49:13.555Z,260
2023-02-16T08:50:13.987Z,270
2023-02-16T08:51:13.739Z,280
2023-02-16T08:52:13.939Z,290
2023-02-16T08:53:13.928Z,295
2023-02-16T08:54:15.535Z,290
2023-02-16T08:55:13.866Z,280
2023-02-16T08:56:14.424Z,270
2023-02-16T08:57:13.816Z,255
2023-02-16T08:58:13.795Z,245
2023-02-16T08:59:13.482Z,235
2023-02-16T09:00:13.447Z,225
2023-02-16T09:01:14.038Z,220
2023-02-16T09:02:13.488Z,220
2023-02-16T09:03:13.734Z,220
2023-02-16T09:04:13.580Z,220
2023-02-16T09:05:13.318Z,225
2023-02-16T09:06:14.545Z,235
2023-02-16T09:07:13.460Z,245
2023-02-16T09:08:13.244Z,250
2023-02-16T09:09:13.234Z,260
2023-02-16T09:10:13.157Z,270
2023-02-16T09:11:13.909Z,285
2023-02-16T09:12:13.323Z,295
2023-02-16T09:13:13.042Z,305
2023-02-16T09:14:13.058Z,315
2023-02-16T09:15:13.255Z,315
2023-02-16T09:16:13.962Z,315
2023-02-16T09:17:13.735Z,315
2023-02-16T09:18:13.031Z,315
2023-02-16T09:19:13.119Z,315
2023-02-16T09:20:13.157Z,320
2023-02-16T09:21:13.061Z,315
2023-02-16T09:22:13.078Z,315
2023-02-16T09:23:13.086Z,310
2023-02-16T09:24:13.045Z,305
2023-02-16T09:25:12.973Z,300
2023-02-16T09:26:13.578Z,295
2023-02-16T09:27:16.612Z,290
2023-02-16T09:28:12.948Z,290
2023-02-16T09:29:12.919Z,290
2023-02-16T09:30:13.051Z,285
2023-02-16T09:31:13.429Z,285
2023-02-16T09:32:12.584Z,280
2023-02-16T09:33:12.707Z,270
2023-02-16T09:34:12.438Z,265
2023-02-16T09:35:12.631Z,270
2023-02-16T09:36:13.560Z,270
2023-02-16T09:37:12.572Z,270
2023-02-16T09:38:23.465Z,290
2023-02-16T09:39:12.287Z,310
2023-02-16T09:40:12.544Z,335
2023-02-16T09:41:14.150Z,365
2023-02-16T09:42:12.459Z,380
2023-02-16T09:44:12.410Z,390
2023-02-16T09:45:12.519Z,390
2023-02-16T09:46:13.399Z,385
2023-02-16T09:47:12.310Z,400
2023-02-16T09:48:12.295Z,410
2023-02-16T09:49:12.472Z,405
2023-02-16T09:50:11.960Z,415
2023-02-16T09:51:11.944Z,425
2023-02-16T09:52:12.192Z,410
2023-02-16T09:53:12.137Z,390
2023-02-16T09:54:12.140Z,380
2023-02-16T09:55:11.824Z,390
2023-02-16T09:56:13.040Z,400
2023-02-16T09:57:12.056Z,410
2023-02-16T09:58:11.977Z,425
2023-02-16T09:59:13.100Z,430
2023-02-16T10:00:11.767Z,435
2023-02-16T10:01:12.134Z,425
2023-02-16T10:02:12.000Z,405
2023-02-16T10:03:11.861Z,385
2023-02-16T10:04:11.379Z,365
2023-02-16T10:05:12.128Z,350
2023-02-16T10:06:12.702Z,345
2023-02-16T10:07:11.726Z,340
2023-02-16T10:08:11.838Z,330
2023-02-16T10:09:11.683Z,325
2023-02-16T10:10:11.776Z,315
2023-02-16T10:11:12.278Z,315
2023-02-16T10:12:11.625Z,315
2023-02-16T10:13:11.571Z,320
2023-02-16T10:14:11.648Z,320
2023-02-16T10:15:11.276Z,320
2023-02-16T10:16:11.453Z,310
2023-02-16T10:17:10.985Z,300
2023-02-16T10:18:11.444Z,305
2023-02-16T10:19:11.175Z,320
2023-02-16T10:20:11.381Z,325
2023-02-16T10:21:12.532Z,330
2023-02-16T10:22:11.206Z,325
2023-02-16T10:23:11.285Z,320
2023-02-16T10:24:11.291Z,315
2023-02-16T10:25:10.991Z,305
2023-02-16T10:26:11.097Z,290
2023-02-16T10:27:22.420Z,270
2023-02-16T10:28:11.154Z,260
2023-02-16T10:29:11.123Z,255
2023-02-16T10:30:11.383Z,250
2023-02-16T10:31:12.814Z,260
2023-02-16T10:32:11.536Z,255
2023-02-16T10:33:10.812Z,255
2023-02-16T10:34:10.975Z,255
2023-02-16T10:35:10.997Z,255
2023-02-16T10:36:10.682Z,255
2023-02-16T10:37:10.736Z,260
2023-02-16T10:38:10.654Z,265
2023-02-16T10:39:10.641Z,260
2023-02-16T10:40:10.880Z,265
2023-02-16T10:41:11.455Z,255
2023-02-16T10:42:10.783Z,255
2023-02-16T10:43:10.747Z,235
2023-02-16T10:44:10.268Z,230
2023-02-16T10:45:10.484Z,220
2023-02-16T10:46:10.945Z,215
2023-02-16T10:47:10.390Z,210
2023-02-16T10:48:10.784Z,200
2023-02-16T10:49:10.577Z,195
2023-02-16T10:50:10.299Z,185
2023-02-16T10:51:11.287Z,180
2023-02-16T10:52:10.491Z,180
2023-02-16T10:53:10.775Z,180
2023-02-16T10:54:10.494Z,185
2023-02-16T10:55:10.632Z,190
2023-02-16T10:56:10.421Z,190
2023-02-16T10:57:10.603Z,200
2023-02-16T10:58:13.876Z,195
2023-02-16T10:59:10.067Z,190
2023-02-16T11:00:10.144Z,185
2023-02-16T11:01:11.124Z,185
2023-02-16T11:02:10.197Z,185
2023-02-16T11:03:09.965Z,185
2023-02-16T11:04:10.243Z,190
2023-02-16T11:05:10.102Z,195
2023-02-16T11:06:10.818Z,200
2023-02-16T11:07:09.938Z,205
2023-02-16T11:08:09.846Z,220
2023-02-16T11:09:10.114Z,235
2023-02-16T11:10:09.768Z,250
2023-02-16T11:11:10.715Z,270
2023-02-16T11:12:10.016Z,290
2023-02-16T11:13:09.677Z,315
2023-02-16T11:14:11.645Z,335
2023-02-16T11:15:09.822Z,350
2023-02-16T11:16:10.199Z,370
2023-02-16T11:17:09.947Z,385
2023-02-16T11:18:10.657Z,405
2023-02-16T11:19:09.694Z,420
2023-02-16T11:20:11.565Z,435
2023-02-16T11:21:10.657Z,450
2023-02-16T11:22:09.352Z,455
2023-02-16T11:23:09.341Z,460
2023-02-16T11:24:09.553Z,465
2023-02-16T11:25:11.513Z,480
2023-02-16T11:26:09.320Z,470
2023-02-16T11:27:09.461Z,470
2023-02-16T11:28:09.514Z,465
2023-02-16T11:29:13.257Z,465
2023-02-16T11:30:09.386Z,450
2023-02-16T11:31:11.065Z,445
2023-02-16T11:32:09.844Z,445
2023-02-16T11:33:09.459Z,445
2023-02-16T11:34:12.569Z,450
2023-02-16T11:35:09.056Z,450
2023-02-16T11:36:09.219Z,450
2023-02-16T11:37:09.199Z,440
2023-02-16T11:38:08.982Z,425
2023-02-16T11:39:11.088Z,415
2023-02-16T11:40:09.128Z,405
2023-02-16T11:41:10.390Z,400
2023-02-16T11:42:08.873Z,395
2023-02-16T11:43:09.285Z,395
2023-02-16T11:44:09.481Z,400
2023-02-16T11:45:08.937Z,405
2023-02-16T11:46:10.172Z,415
2023-02-16T11:47:08.718Z,425
2023-02-16T11:48:08.633Z,435
2023-02-16T11:49:08.606Z,440
2023-02-16T11:50:08.849Z,440
2023-02-16T11:51:09.615Z,430
2023-02-16T11:52:08.297Z,430
2023-02-16T11:53:08.733Z,425
2023-02-16T11:54:08.729Z,430
2023-02-16T11:55:08.435Z,425
2023-02-16T11:56:09.028Z,420
2023-02-16T11:57:08.768Z,415
2023-02-16T11:58:08.374Z,410
2023-02-16T11:59:08.592Z,410
2023-02-16T12:00:08.746Z,415
2023-02-16T12:01:09.506Z,420
2023-02-16T12:02:08.577Z,420
2023-02-16T12:03:08.537Z,415
2023-02-16T12:04:08.831Z,410
2023-02-16T12:05:08.657Z,405
2023-02-16T12:06:08.550Z,390
2023-02-16T12:07:08.375Z,375
2023-02-16T12:08:08.343Z,355
2023-02-16T12:09:08.304Z,335
2023-02-16T12:10:08.294Z,305
2023-02-16T12:11:09.277Z,275
2023-02-16T12:12:07.984Z,265
2023-02-16T12:13:08.304Z,270
2023-02-16T12:14:08.609Z,275
2023-02-16T12:15:08.178Z,275
2023-02-16T12:16:13.614Z,275
2023-02-16T12:17:07.888Z,275
2023-02-16T12:18:08.150Z,285
2023-02-16T12:19:08.041Z,285
2023-02-16T12:20:07.754Z,280
2023-02-16T12:21:07.535Z,265
2023-02-16T12:22:07.971Z,260
2023-02-16T12:23:08.105Z,265
2023-02-16T12:24:07.951Z,275
2023-02-16T12:25:07.876Z,275
2023-02-16T12:26:08.614Z,270
2023-02-16T12:27:07.815Z,280
2023-02-16T12:28:07.931Z,300
2023-02-16T12:29:07.977Z,320
2023-02-16T12:30:07.946Z,325
2023-02-16T12:31:07.943Z,320
2023-02-16T12:32:08.041Z,315
2023-02-16T12:33:07.657Z,310
2023-02-16T12:34:07.740Z,305
2023-02-16T12:35:07.604Z,300
2023-02-16T12:36:08.684Z,295
2023-02-16T12:37:07.560Z,290
2023-02-16T12:38:07.511Z,290
2023-02-16T12:39:07.642Z,270
2023-02-16T12:40:07.588Z,240
2023-02-16T12:41:07.758Z,215
2023-02-16T12:42:07.424Z,195
2023-02-16T12:43:07.360Z,180
2023-02-16T12:44:07.350Z,175
2023-02-16T12:45:07.507Z,180
2023-02-16T12:46:08.295Z,175
2023-02-16T12:47:07.270Z,180
2023-02-16T12:48:07.267Z,190
2023-02-16T12:49:07.191Z,210
2023-02-16T12:50:07.340Z,240
2023-02-16T12:51:07.899Z,255
2023-02-16T12:52:08.718Z,250
2023-02-16T12:53:07.075Z,255
2023-02-16T12:54:07.039Z,275
2023-02-16T12:55:06.989Z,300
2023-02-16T12:56:07.839Z,320
2023-02-16T12:57:07.121Z,330
2023-02-16T12:58:06.718Z,340
2023-02-16T12:59:07.009Z,350
2023-02-16T13:00:06.898Z,360
2023-02-16T13:01:07.883Z,365
2023-02-16T13:02:06.823Z,355
2023-02-16T13:03:09.610Z,345
2023-02-16T13:04:06.827Z,330
2023-02-16T13:05:06.779Z,325
2023-02-16T13:06:07.372Z,320
2023-02-16T13:07:06.464Z,320
2023-02-16T13:08:06.661Z,320
2023-02-16T13:09:06.793Z,330
2023-02-16T13:10:06.763Z,335
2023-02-16T13:11:07.441Z,340
2023-02-16T13:12:09.387Z,345
2023-02-16T13:13:06.555Z,345
2023-02-16T13:14:06.474Z,340
2023-02-16T13:15:06.490Z,335
2023-02-16T13:16:12.863Z,320
2023-02-16T13:17:07.124Z,305
2023-02-16T13:18:06.483Z,305
2023-02-16T13:19:06.408Z,320
2023-02-16T13:20:08.242Z,335
2023-02-16T13:21:06.099Z,335
2023-02-16T13:22:06.309Z,335
2023-02-16T13:23:06.089Z,335
2023-02-16T13:24:05.974Z,325
2023-02-16T13:25:06.454Z,315
2023-02-16T13:26:08.079Z,310
2023-02-16T13:27:05.873Z,320
2023-02-16T13:28:06.286Z,330
2023-02-16T13:29:06.835Z,335
2023-02-16T13:30:06.288Z,330
2023-02-16T13:31:06.733Z,330
2023-02-16T13:32:06.462Z,335
2023-02-16T13:33:06.022Z,345
2023-02-16T13:34:05.954Z,345
2023-02-16T13:35:05.738Z,340
2023-02-16T13:36:06.639Z,325
2023-02-16T13:37:05.826Z,300
2023-02-16T13:38:06.946Z,285
2023-02-16T13:39:05.805Z,275
2023-02-16T13:40:05.287Z,270
2023-02-16T13:41:05.499Z,260
2023-02-16T13:42:05.503Z,245
2023-02-16T13:43:05.693Z,235
2023-02-16T13:44:05.688Z,230
2023-02-16T13:45:05.675Z,235
2023-02-16T13:46:06.692Z,240
2023-02-16T13:47:05.540Z,245
2023-02-16T13:48:05.550Z,255
2023-02-16T13:49:05.594Z,265
2023-02-16T13:50:05.501Z,275
2023-02-16T13:51:05.902Z,280
2023-02-16T13:52:05.447Z,275
2023-02-16T13:53:05.402Z,260
2023-02-16T13:54:05.410Z,250
2023-02-16T13:55:05.151Z,250
2023-02-16T13:56:05.983Z,265
2023-02-16T13:57:05.319Z,265
2023-02-16T13:58:05.335Z,265
2023-02-16T13:59:05.212Z,265
2023-02-16T14:00:05.201Z,265
2023-02-16T14:01:05.466Z,270
2023-02-16T14:02:05.137Z,280
2023-02-16T14:03:05.152Z,290
2023-02-16T14:04:05.147Z,300
2023-02-16T14:05:05.206Z,320
2023-02-16T14:06:05.940Z,355
2023-02-16T14:07:04.756Z,365
2023-02-16T14:08:04.990Z,340
2023-02-16T14:09:04.938Z,295
2023-02-16T14:10:04.987Z,240
2023-02-16T14:11:05.005Z,185
2023-02-16T14:12:04.923Z,140
2023-02-16T14:13:04.633Z,105
2023-02-16T14:14:04.819Z,90
2023-02-16T14:15:04.797Z,90
2023-02-16T14:16:05.953Z,105
2023-02-16T14:17:04.716Z,135